createdAt,value
2017-09-14T00:00:42.977Z,9.13
2017-09-14T00:03:09.604Z,4.70
2017-09-14T00:05:36.241Z,11.33
2017-09-14T00:08:02.883Z,9.33
2017-09-14T00:10:29.505Z,11.67
2017-09-14T00:12:56.160Z,6.23
2017-09-14T00:15:22.795Z,13.93
2017-09-14T00:17:49.460Z,11.83
2017-09-14T00:20:16.416Z,13.60
2017-09-14T00:22:43.064Z,12.30
2017-09-14T00:25:09.704Z,15.00
2017-09-14T00:27:36.351Z,8.23
2017-09-14T00:30:03.000Z,10.90
2017-09-14T00:32:29.605Z,17.87
2017-09-14T00:34:56.246Z,10.73
2017-09-14T00:37:22.874Z,12.10
2017-09-14T00:39:49.514Z,18.50
2017-09-14T00:42:16.135Z,5.97
2017-09-14T00:44:43.157Z,9.43
2017-09-14T00:47:09.771Z,19.03
2017-09-14T00:49:36.388Z,17.60
2017-09-14T00:52:03.032Z,12.50
2017-09-14T00:54:29.654Z,17.40
2017-09-14T00:56:56.292Z,7.80
2017-09-14T00:59:22.924Z,15.53
2017-09-14T01:01:49.543Z,11.77
2017-09-14T01:04:16.475Z,11.70
2017-09-14T01:06:43.095Z,12.10
2017-09-14T01:09:09.736Z,17.17
2017-09-14T01:11:36.398Z,17.60
2017-09-14T01:14:03.042Z,12.13
2017-09-14T01:16:29.670Z,18.10
2017-09-14T01:18:56.308Z,10.53
2017-09-14T01:21:23.002Z,14.93
2017-09-14T01:23:49.615Z,9.23
2017-09-14T01:26:16.248Z,11.00
2017-09-14T01:28:42.864Z,13.87
2017-09-14T01:31:09.499Z,11.47
2017-09-14T01:33:36.134Z,10.90
2017-09-14T01:36:02.741Z,8.93
2017-09-14T01:38:29.390Z,9.33
2017-09-14T01:40:56.023Z,10.23
2017-09-14T01:43:22.952Z,17.63
2017-09-14T01:45:49.591Z,19.87
2017-09-14T01:48:16.236Z,15.97
2017-09-14T01:50:42.857Z,12.40
2017-09-14T01:53:09.480Z,7.47
2017-09-14T01:55:36.085Z,5.83
2017-09-14T01:58:02.715Z,10.30
2017-09-14T02:00:29.350Z,10.40
2017-09-14T02:02:55.983Z,14.77
2017-09-14T02:05:22.628Z,12.57
2017-09-14T02:07:49.260Z,13.50
2017-09-14T02:10:15.877Z,6.60
2017-09-14T02:12:42.506Z,13.00
2017-09-14T02:15:09.156Z,8.40
2017-09-14T02:17:35.768Z,15.87
2017-09-14T02:20:02.408Z,14.00
2017-09-14T02:22:29.043Z,15.63
2017-09-14T02:24:55.728Z,11.97
2017-09-14T02:27:22.380Z,15.27
2017-09-14T02:29:49.024Z,13.53
2017-09-14T02:32:15.673Z,20.37
2017-09-14T02:34:42.299Z,10.90
2017-09-14T02:37:08.944Z,20.40
2017-09-14T02:39:35.579Z,7.30
2017-09-14T02:42:02.531Z,21.60
2017-09-14T02:44:29.183Z,13.83
2017-09-14T02:46:55.807Z,14.20
2017-09-14T02:49:22.435Z,12.20
2017-09-14T02:51:49.075Z,11.63
2017-09-14T02:54:16.020Z,14.93
2017-09-14T02:56:42.655Z,21.43
2017-09-14T02:59:09.280Z,14.13
2017-09-14T03:01:35.927Z,11.83
2017-09-14T03:04:02.558Z,18.40
2017-09-14T03:06:29.190Z,9.30
2017-09-14T03:08:55.827Z,16.17
2017-09-14T03:11:22.440Z,19.73
2017-09-14T03:13:49.092Z,8.37
2017-09-14T03:16:15.709Z,11.53
2017-09-14T03:18:42.322Z,10.20
2017-09-14T03:21:08.951Z,11.13
2017-09-14T03:23:35.564Z,13.57
2017-09-14T03:26:02.196Z,9.80
2017-09-14T03:28:28.809Z,12.27
2017-09-14T03:30:55.467Z,9.03
2017-09-14T03:33:22.107Z,7.50
2017-09-14T03:35:48.711Z,11.30
2017-09-14T03:38:15.355Z,12.53
2017-09-14T03:40:41.987Z,13.80
2017-09-14T03:43:08.618Z,10.13
2017-09-14T03:45:35.268Z,14.43
2017-09-14T03:48:01.902Z,10.70
2017-09-14T03:50:28.508Z,8.93
2017-09-14T03:52:55.138Z,13.93
2017-09-14T03:55:21.758Z,18.57
2017-09-14T03:57:48.391Z,15.97
2017-09-14T04:00:15.002Z,22.60
2017-09-14T04:02:41.640Z,13.83
2017-09-14T04:05:08.283Z,14.20
2017-09-14T04:07:34.918Z,10.13
2017-09-14T04:10:01.571Z,18.43
2017-09-14T04:12:28.216Z,9.33
2017-09-14T04:14:54.851Z,19.60
2017-09-14T04:17:21.470Z,9.73
2017-09-14T04:19:48.120Z,11.20
2017-09-14T04:22:14.742Z,13.03
2017-09-14T04:24:41.360Z,11.63
2017-09-14T04:27:08.022Z,15.07
2017-09-14T04:29:34.636Z,8.60
2017-09-14T04:32:01.251Z,13.03
2017-09-14T04:34:27.890Z,13.23
2017-09-14T04:36:54.511Z,11.27
2017-09-14T04:39:21.139Z,9.60
2017-09-14T04:41:47.783Z,13.20
2017-09-14T04:44:14.402Z,19.13
2017-09-14T04:46:41.036Z,28.63
2017-09-14T04:49:07.658Z,15.27
2017-09-14T04:51:34.314Z,14.77
2017-09-14T04:54:00.956Z,18.70
2017-09-14T04:56:27.576Z,19.10
2017-09-14T04:58:54.283Z,19.03
2017-09-14T05:01:20.910Z,16.57
2017-09-14T05:03:47.550Z,21.27
2017-09-14T05:06:14.182Z,20.50
2017-09-14T05:08:40.797Z,13.00
2017-09-14T05:11:07.434Z,17.20
2017-09-14T05:13:34.071Z,15.40
2017-09-14T05:16:00.696Z,14.37
2017-09-14T05:18:27.331Z,14.83
2017-09-14T05:20:54.004Z,8.60
2017-09-14T05:23:20.652Z,13.80
2017-09-14T05:25:47.276Z,18.17
2017-09-14T05:28:13.919Z,13.30
2017-09-14T05:30:40.537Z,9.60
2017-09-14T05:33:07.174Z,14.93
2017-09-14T05:35:33.794Z,11.17
2017-09-14T05:38:00.446Z,9.23
2017-09-14T05:40:27.060Z,15.70
2017-09-14T05:42:53.728Z,20.00
2017-09-14T05:45:20.362Z,14.97
2017-09-14T05:47:47.002Z,9.63
2017-09-14T05:50:13.619Z,11.57
2017-09-14T05:52:40.265Z,18.20
2017-09-14T05:55:06.939Z,22.57
2017-09-14T05:57:33.576Z,21.20
2017-09-14T06:00:00.186Z,13.50
2017-09-14T06:02:26.807Z,8.70
2017-09-14T06:04:53.438Z,10.30
2017-09-14T06:07:20.071Z,17.63
2017-09-14T06:09:46.726Z,17.50
2017-09-14T06:12:13.351Z,18.27
2017-09-14T06:14:39.970Z,10.83
2017-09-14T06:17:06.587Z,12.83
2017-09-14T06:19:33.186Z,9.17
2017-09-14T06:21:59.819Z,10.10
2017-09-14T06:24:26.424Z,24.27
2017-09-14T06:26:53.061Z,18.20
2017-09-14T06:29:19.701Z,13.97
2017-09-14T06:31:46.344Z,8.83
2017-09-14T06:34:12.951Z,13.30
2017-09-14T06:36:39.559Z,14.83
2017-09-14T06:39:06.232Z,14.67
2017-09-14T06:41:32.837Z,11.80
2017-09-14T06:43:59.472Z,6.53
2017-09-14T06:46:26.131Z,8.60
2017-09-14T06:48:52.766Z,12.00
2017-09-14T06:51:19.402Z,15.50
2017-09-14T06:53:46.039Z,12.10
2017-09-14T06:56:12.689Z,9.53
2017-09-14T06:58:39.336Z,7.13
2017-09-14T07:01:05.971Z,4.33
2017-09-14T07:03:32.595Z,11.40
2017-09-14T07:05:59.230Z,6.63
2017-09-14T07:08:25.871Z,13.17
2017-09-14T07:10:52.510Z,4.30
2017-09-14T07:13:19.122Z,6.53
2017-09-14T07:15:45.730Z,7.37
2017-09-14T07:18:12.359Z,5.03
2017-09-14T07:20:38.979Z,10.40
2017-09-14T07:23:05.606Z,9.43
2017-09-14T07:25:32.235Z,7.60
2017-09-14T07:27:59.727Z,9.57
2017-09-14T07:30:26.383Z,6.57
2017-09-14T07:32:53.015Z,3.70
2017-09-14T07:35:19.651Z,4.07
2017-09-14T07:37:46.267Z,2.60
2017-09-14T07:40:12.879Z,7.20
2017-09-14T07:42:39.507Z,7.27
2017-09-14T07:45:06.143Z,4.03
2017-09-14T07:47:32.765Z,3.40
2017-09-14T07:49:59.397Z,4.10
2017-09-14T07:52:26.027Z,8.77
2017-09-14T07:54:52.656Z,3.77
2017-09-14T07:57:19.263Z,9.90
2017-09-14T07:59:45.890Z,5.30
2017-09-14T08:02:12.523Z,7.93
2017-09-14T08:04:39.139Z,4.40
2017-09-14T08:07:05.775Z,3.80
2017-09-14T08:09:32.407Z,7.73
2017-09-14T08:11:59.051Z,3.40
2017-09-14T08:14:25.667Z,6.60
2017-09-14T08:16:52.328Z,15.33
2017-09-14T08:19:18.950Z,4.93
2017-09-14T08:21:45.579Z,6.40
2017-09-14T08:24:12.215Z,5.00
2017-09-14T08:26:38.832Z,7.30
2017-09-14T08:29:05.468Z,4.73
2017-09-14T08:31:32.078Z,6.70
2017-09-14T08:33:58.720Z,8.60
2017-09-14T08:36:25.765Z,5.57
2017-09-14T08:38:52.399Z,7.10
2017-09-14T08:41:19.048Z,7.23
2017-09-14T08:43:45.683Z,11.57
2017-09-14T08:46:12.323Z,7.60
2017-09-14T08:48:38.939Z,4.23
2017-09-14T08:51:05.554Z,5.23
2017-09-14T08:53:32.172Z,8.17
2017-09-14T08:55:58.786Z,6.13
2017-09-14T08:58:25.411Z,4.23
2017-09-14T09:00:52.051Z,8.83
2017-09-14T09:03:18.695Z,5.33
2017-09-14T09:05:45.326Z,2.90
2017-09-14T09:08:11.931Z,4.13
2017-09-14T09:10:38.567Z,7.23
2017-09-14T09:13:05.215Z,6.83
2017-09-14T09:15:31.827Z,5.97
2017-09-14T09:17:58.440Z,11.77
2017-09-14T09:20:25.070Z,22.07
2017-09-14T09:22:51.728Z,20.17
2017-09-14T09:25:18.352Z,13.47
2017-09-14T09:27:44.968Z,13.10
2017-09-14T09:30:11.594Z,6.77
2017-09-14T09:32:38.220Z,3.60
2017-09-14T09:35:04.849Z,3.77
2017-09-14T09:37:31.456Z,2.10
2017-09-14T09:39:58.092Z,5.07
2017-09-14T09:42:24.733Z,2.60
2017-09-14T09:44:51.349Z,2.27
2017-09-14T09:47:17.979Z,3.27
2017-09-14T09:49:44.613Z,2.87
2017-09-14T09:52:11.259Z,1.83
2017-09-14T09:54:37.896Z,4.00
2017-09-14T09:57:04.566Z,2.67
2017-09-14T09:59:31.210Z,2.03
2017-09-14T10:01:57.836Z,2.83
2017-09-14T10:04:24.478Z,4.93
2017-09-14T10:06:51.090Z,4.20
2017-09-14T10:09:17.720Z,4.10
2017-09-14T10:11:44.339Z,3.10
2017-09-14T10:14:10.976Z,5.57
2017-09-14T10:16:37.591Z,5.10
2017-09-14T10:19:04.207Z,4.20
2017-09-14T10:21:30.844Z,5.40
2017-09-14T10:23:57.469Z,8.47
2017-09-14T10:26:24.084Z,8.23
2017-09-14T10:28:50.719Z,3.70
2017-09-14T10:31:17.357Z,4.17
2017-09-14T10:33:43.988Z,3.43
2017-09-14T10:36:10.613Z,8.73
2017-09-14T10:38:37.214Z,5.30
2017-09-14T10:41:03.904Z,2.50
2017-09-14T10:43:30.640Z,4.93
2017-09-14T10:45:57.291Z,10.53
2017-09-14T10:48:23.924Z,3.57
2017-09-14T10:50:50.527Z,6.40
2017-09-14T10:53:17.170Z,6.13
2017-09-14T10:55:43.818Z,2.83
2017-09-14T10:58:10.466Z,7.10
2017-09-14T11:00:37.140Z,8.37
2017-09-14T11:03:03.799Z,4.00
2017-09-14T11:05:30.415Z,4.90
2017-09-14T11:07:57.018Z,7.77
2017-09-14T11:10:23.654Z,6.00
2017-09-14T11:12:50.284Z,2.60
2017-09-14T11:15:16.903Z,2.80
2017-09-14T11:17:43.534Z,3.83
2017-09-14T11:20:10.168Z,9.43
2017-09-14T11:22:36.786Z,4.07
2017-09-14T11:25:03.442Z,6.60
2017-09-14T11:27:30.100Z,5.47
2017-09-14T11:29:56.735Z,1.77
2017-09-14T11:32:23.371Z,4.20
2017-09-14T11:34:49.982Z,2.70
2017-09-14T11:37:16.618Z,1.60
2017-09-14T11:39:43.254Z,4.93
2017-09-14T11:42:09.867Z,1.40
2017-09-14T11:44:36.494Z,5.73
2017-09-14T11:47:03.140Z,2.10
2017-09-14T11:49:29.771Z,3.97
2017-09-14T11:51:56.407Z,2.67
2017-09-14T11:54:24.820Z,3.30
2017-09-14T11:56:51.432Z,4.10
2017-09-14T11:59:18.060Z,2.43
2017-09-14T12:01:44.687Z,1.50
2017-09-14T12:04:11.328Z,3.03
2017-09-14T12:06:37.956Z,7.03
2017-09-14T12:09:04.572Z,2.00
2017-09-14T12:11:31.240Z,6.40
2017-09-14T12:13:58.063Z,3.27
2017-09-14T12:16:24.683Z,5.27
2017-09-14T12:18:51.311Z,7.57
2017-09-14T12:21:17.941Z,6.70
2017-09-14T12:23:44.557Z,2.70
2017-09-14T12:26:11.176Z,3.20
2017-09-14T12:28:37.803Z,3.50
2017-09-14T12:31:04.440Z,4.30
2017-09-14T12:33:31.047Z,2.57
2017-09-14T12:35:57.729Z,3.00
2017-09-14T12:38:24.351Z,3.93
2017-09-14T12:40:51.011Z,4.43
2017-09-14T12:43:17.670Z,5.40
2017-09-14T12:45:44.278Z,2.07
2017-09-14T12:48:10.944Z,2.63
2017-09-14T12:50:37.570Z,5.03
2017-09-14T12:53:04.216Z,5.20
2017-09-14T12:55:30.836Z,5.00
2017-09-14T12:57:57.490Z,2.10
2017-09-14T13:00:24.119Z,2.20
2017-09-14T13:02:50.752Z,7.13
2017-09-14T13:05:17.368Z,1.57
2017-09-14T13:07:44.016Z,4.87
2017-09-14T13:10:10.644Z,3.00
2017-09-14T13:12:37.275Z,3.10
2017-09-14T13:15:03.912Z,15.97
2017-09-14T13:17:30.535Z,20.20
2017-09-14T13:19:57.154Z,2.90
2017-09-14T13:22:23.811Z,1.80
2017-09-14T13:24:50.432Z,4.07
2017-09-14T13:27:17.092Z,2.83
2017-09-14T13:29:43.712Z,2.47
2017-09-14T13:32:10.323Z,3.07
2017-09-14T13:34:36.972Z,1.70
2017-09-14T13:37:03.589Z,1.67
2017-09-14T13:39:30.206Z,2.60
2017-09-14T13:41:56.848Z,3.30
2017-09-14T13:44:23.489Z,1.53
2017-09-14T13:46:50.128Z,2.97
2017-09-14T13:49:16.764Z,4.67
2017-09-14T13:51:43.419Z,2.07
2017-09-14T13:54:10.069Z,5.30
2017-09-14T13:56:36.678Z,2.20
2017-09-14T13:59:03.299Z,1.40
2017-09-14T14:01:29.937Z,0.73
2017-09-14T14:03:56.575Z,2.40
2017-09-14T14:06:23.207Z,3.67
2017-09-14T14:08:49.821Z,1.40
2017-09-14T14:11:16.459Z,2.13
2017-09-14T14:13:43.088Z,3.90
2017-09-14T14:16:09.696Z,3.40
2017-09-14T14:18:36.321Z,3.17
2017-09-14T14:21:02.934Z,3.03
2017-09-14T14:23:29.584Z,1.20
2017-09-14T14:25:56.196Z,2.43
2017-09-14T14:28:22.835Z,3.43
2017-09-14T14:30:49.473Z,1.90
2017-09-14T14:33:16.079Z,2.10
2017-09-14T14:35:42.739Z,2.50
2017-09-14T14:38:09.353Z,1.40
2017-09-14T14:40:35.995Z,2.23
2017-09-14T14:43:02.621Z,2.20
2017-09-14T14:45:29.227Z,1.33
2017-09-14T14:47:55.865Z,2.00
2017-09-14T14:50:22.503Z,2.70
2017-09-14T14:52:49.115Z,1.40
2017-09-14T14:55:15.733Z,1.57
2017-09-14T14:57:42.379Z,2.90
2017-09-14T15:00:09.052Z,1.57
2017-09-14T15:02:35.675Z,1.43
2017-09-14T15:05:02.335Z,1.73
2017-09-14T15:07:28.950Z,11.37
2017-09-14T15:09:55.603Z,1.30
2017-09-14T15:12:22.224Z,1.67
2017-09-14T15:14:48.835Z,1.20
2017-09-14T15:17:15.485Z,1.57
2017-09-14T15:19:42.109Z,2.23
2017-09-14T15:22:08.735Z,2.07
2017-09-14T15:24:35.355Z,1.90
2017-09-14T15:27:02.003Z,2.63
2017-09-14T15:29:28.640Z,2.13
2017-09-14T15:31:55.257Z,2.10
2017-09-14T15:34:21.907Z,3.07
2017-09-14T15:36:48.514Z,3.63
2017-09-14T15:39:20.939Z,2.40
2017-09-14T15:41:47.559Z,3.20
2017-09-14T15:44:19.786Z,3.07
2017-09-14T15:46:46.419Z,2.10
2017-09-14T15:49:18.943Z,4.47
2017-09-14T15:51:51.463Z,8.60
2017-09-14T15:54:18.113Z,2.00
2017-09-14T15:56:44.735Z,1.90
2017-09-14T15:59:11.349Z,2.30
2017-09-14T16:01:38.747Z,4.00
2017-09-14T16:04:05.390Z,3.10
2017-09-14T16:06:32.043Z,4.83
2017-09-14T16:08:58.676Z,2.50
2017-09-14T16:11:25.303Z,3.20
2017-09-14T16:13:51.911Z,2.40
2017-09-14T16:16:18.532Z,4.63
2017-09-14T16:18:45.171Z,5.37
2017-09-14T16:21:11.873Z,2.80
2017-09-14T16:23:38.518Z,3.23
2017-09-14T16:26:05.140Z,2.63
2017-09-14T16:28:31.811Z,4.50
2017-09-14T16:30:58.428Z,3.43
2017-09-14T16:33:25.048Z,3.90
2017-09-14T16:35:51.661Z,5.67
2017-09-14T16:38:18.292Z,4.20
2017-09-14T16:40:44.943Z,2.33
2017-09-14T16:43:11.582Z,4.00
2017-09-14T16:45:38.221Z,3.63
2017-09-14T16:48:04.848Z,2.83
2017-09-14T16:50:31.462Z,2.30
2017-09-14T16:52:58.117Z,2.57
2017-09-14T16:55:24.874Z,2.23
2017-09-14T16:57:51.549Z,4.80
2017-09-14T17:00:18.163Z,3.70
2017-09-14T17:02:44.810Z,5.07
2017-09-14T17:05:11.425Z,5.70
2017-09-14T17:07:38.059Z,4.77
2017-09-14T17:10:04.691Z,3.73
2017-09-14T17:12:31.374Z,4.70
2017-09-14T17:14:58.295Z,3.93
2017-09-14T17:17:24.974Z,10.03
2017-09-14T17:19:51.597Z,3.90
2017-09-14T17:22:18.252Z,5.20
2017-09-14T17:24:44.883Z,4.27
2017-09-14T17:27:11.541Z,6.20
2017-09-14T17:29:38.173Z,5.73
2017-09-14T17:32:04.839Z,10.00
2017-09-14T17:34:31.474Z,7.10
2017-09-14T17:36:58.103Z,6.03
2017-09-14T17:39:24.756Z,7.27
2017-09-14T17:41:51.372Z,4.43
2017-09-14T17:44:18.017Z,3.67
2017-09-14T17:46:44.636Z,7.67
2017-09-14T17:49:11.252Z,4.73
2017-09-14T17:51:37.894Z,5.33
2017-09-14T17:54:04.523Z,5.97
2017-09-14T17:56:31.174Z,3.87
2017-09-14T17:58:57.810Z,7.47
2017-09-14T18:01:24.514Z,10.47
2017-09-14T18:03:51.157Z,3.73
2017-09-14T18:06:17.772Z,3.60
2017-09-14T18:08:44.436Z,5.33
2017-09-14T18:11:11.117Z,3.77
2017-09-14T18:13:37.789Z,5.33
2017-09-14T18:16:04.405Z,4.50
2017-09-14T18:18:31.068Z,3.60
2017-09-14T18:20:57.711Z,4.50
2017-09-14T18:23:24.322Z,13.10
2017-09-14T18:25:50.959Z,7.40
2017-09-14T18:28:17.595Z,7.87
2017-09-14T18:30:44.229Z,3.97
2017-09-14T18:33:10.854Z,4.87
2017-09-14T18:35:37.467Z,5.47
2017-09-14T18:38:04.090Z,3.67
2017-09-14T18:40:30.936Z,3.07
2017-09-14T18:42:57.545Z,3.20
2017-09-14T18:45:24.198Z,5.80
2017-09-14T18:47:50.848Z,6.70
2017-09-14T18:50:17.467Z,5.50
2017-09-14T18:52:44.091Z,2.60
2017-09-14T18:55:10.935Z,6.60
2017-09-14T18:57:37.608Z,4.30
2017-09-14T19:00:04.250Z,3.83
2017-09-14T19:02:30.933Z,7.47
2017-09-14T19:04:57.575Z,4.73
2017-09-14T19:07:24.204Z,6.60
2017-09-14T19:09:50.852Z,5.77
2017-09-14T19:12:17.489Z,8.30
2017-09-14T19:14:44.142Z,7.50
2017-09-14T19:17:10.774Z,3.77
2017-09-14T19:19:37.384Z,6.90
2017-09-14T19:22:04.068Z,6.77
2017-09-14T19:24:30.694Z,7.83
2017-09-14T19:26:57.316Z,7.30
2017-09-14T19:29:23.965Z,6.50
2017-09-14T19:31:50.584Z,6.60
2017-09-14T19:34:17.221Z,13.23
2017-09-14T19:36:43.869Z,8.83
2017-09-14T19:39:10.471Z,14.17
2017-09-14T19:41:37.144Z,10.10
2017-09-14T19:44:03.771Z,9.47
2017-09-14T19:46:30.417Z,6.80
2017-09-14T19:48:57.085Z,9.40
2017-09-14T19:51:23.720Z,8.57
2017-09-14T19:53:50.370Z,6.90
2017-09-14T19:56:17.000Z,8.03
2017-09-14T19:58:43.647Z,12.10
2017-09-14T20:01:10.303Z,7.53
2017-09-14T20:03:36.948Z,10.93
2017-09-14T20:06:03.598Z,8.97
2017-09-14T20:08:30.224Z,7.00
2017-09-14T20:10:56.893Z,10.03
2017-09-14T20:13:23.528Z,13.27
2017-09-14T20:15:50.155Z,15.93
2017-09-14T20:18:16.804Z,11.07
2017-09-14T20:20:43.429Z,14.33
2017-09-14T20:23:10.069Z,22.87
2017-09-14T20:25:36.736Z,16.17
2017-09-14T20:28:03.358Z,12.90
2017-09-14T20:30:30.004Z,8.80
2017-09-14T20:32:56.619Z,28.37
2017-09-14T20:35:23.277Z,11.00
2017-09-14T20:37:49.892Z,12.80
2017-09-14T20:40:16.550Z,13.53
2017-09-14T20:42:43.161Z,12.83
2017-09-14T20:45:09.801Z,16.13
2017-09-14T20:47:36.414Z,22.10
2017-09-14T20:50:03.057Z,12.47
2017-09-14T20:52:29.690Z,11.90
2017-09-14T20:54:56.556Z,16.20
2017-09-14T20:57:23.212Z,13.47
2017-09-14T20:59:49.883Z,15.13
2017-09-14T21:02:16.508Z,19.77
2017-09-14T21:04:43.179Z,17.33
2017-09-14T21:07:09.842Z,11.40
2017-09-14T21:09:36.494Z,16.10
2017-09-14T21:12:03.142Z,14.00
2017-09-14T21:14:29.777Z,9.20
2017-09-14T21:16:56.417Z,12.90
2017-09-14T21:19:23.063Z,28.63
2017-09-14T21:21:49.684Z,11.97
2017-09-14T21:24:16.288Z,10.47
2017-09-14T21:26:42.941Z,11.10
2017-09-14T21:29:09.580Z,13.23
2017-09-14T21:31:36.201Z,12.27
2017-09-14T21:34:02.858Z,9.63
2017-09-14T21:36:29.463Z,14.23
2017-09-14T21:38:56.094Z,14.63
2017-09-14T21:41:22.736Z,9.73
2017-09-14T21:43:49.355Z,8.30
2017-09-14T21:46:16.008Z,10.40
2017-09-14T21:48:42.638Z,9.80
2017-09-14T21:51:09.251Z,14.43
2017-09-14T21:53:35.892Z,12.90
2017-09-14T21:56:02.527Z,13.50
2017-09-14T21:58:29.166Z,11.53
2017-09-14T22:00:55.787Z,6.37
2017-09-14T22:03:22.401Z,8.60
2017-09-14T22:05:49.039Z,9.33
2017-09-14T22:08:15.669Z,10.90
2017-09-14T22:10:42.287Z,12.70
2017-09-14T22:13:08.943Z,21.90
2017-09-14T22:15:35.552Z,17.33
2017-09-14T22:18:02.180Z,8.47
2017-09-14T22:20:28.801Z,15.03
2017-09-14T22:22:55.435Z,10.67
2017-09-14T22:25:22.047Z,13.47
2017-09-14T22:27:48.678Z,14.80
2017-09-14T22:30:15.314Z,24.13
2017-09-14T22:32:41.938Z,12.53
2017-09-14T22:35:08.571Z,10.53
2017-09-14T22:37:35.178Z,14.03
2017-09-14T22:40:01.822Z,17.70
2017-09-14T22:42:28.452Z,13.10
2017-09-14T22:44:55.095Z,21.93
2017-09-14T22:47:21.751Z,21.17
2017-09-14T22:49:48.379Z,28.83
2017-09-14T22:52:14.993Z,26.33
2017-09-14T22:54:41.630Z,17.57
2017-09-14T22:57:08.243Z,32.00
2017-09-14T22:59:34.866Z,20.70
2017-09-14T23:02:01.492Z,15.00
2017-09-14T23:04:28.110Z,16.90
2017-09-14T23:06:54.746Z,21.40
2017-09-14T23:09:21.360Z,18.80
2017-09-14T23:11:47.971Z,18.50
2017-09-14T23:14:14.629Z,18.93
2017-09-14T23:16:41.266Z,16.03
2017-09-14T23:19:07.882Z,18.40
2017-09-14T23:21:34.477Z,17.37
2017-09-14T23:24:01.126Z,16.60
2017-09-14T23:26:27.768Z,16.63
2017-09-14T23:28:54.399Z,16.50
2017-09-14T23:31:21.046Z,18.57
2017-09-14T23:33:47.671Z,18.13
2017-09-14T23:36:14.312Z,15.27
2017-09-14T23:38:40.956Z,15.10
2017-09-14T23:41:07.842Z,24.33
2017-09-14T23:43:34.474Z,17.23
2017-09-14T23:46:01.090Z,16.50
2017-09-14T23:48:27.704Z,20.23
2017-09-14T23:50:54.331Z,20.50
2017-09-14T23:53:20.956Z,23.83
2017-09-14T23:55:47.578Z,14.87
2017-09-14T23:58:14.228Z,20.63
